createdAt,value
2022-10-01T00:02:09.370Z,7.77
2022-10-01T00:04:36.548Z,7.82
2022-10-01T00:07:03.556Z,7.75
2022-10-01T00:09:30.948Z,7.93
2022-10-01T00:11:57.545Z,7.30
2022-10-01T00:14:25.722Z,7.90
2022-10-01T00:16:52.239Z,7.38
2022-10-01T00:19:18.804Z,7.55
2022-10-01T00:21:45.333Z,6.57
2022-10-01T00:24:12.897Z,7.20
2022-10-01T00:26:39.507Z,6.80
2022-10-01T00:29:09.844Z,7.45
2022-10-01T00:31:38.696Z,8.48
2022-10-01T00:34:05.763Z,6.97
2022-10-01T00:36:33.359Z,7.50
2022-10-01T00:39:00.249Z,8.33
2022-10-01T00:41:27.601Z,8.00
2022-10-01T00:43:57.146Z,8.50
2022-10-01T00:46:27.764Z,9.93
2022-10-01T00:49:00.045Z,8.57
2022-10-01T00:51:30.073Z,8.60
2022-10-01T00:54:01.105Z,8.98
2022-10-01T00:56:27.620Z,9.38
2022-10-01T00:58:54.634Z,9.35
2022-10-01T01:01:21.483Z,9.25
2022-10-01T01:03:48.521Z,9.10
2022-10-01T01:06:16.517Z,8.73
2022-10-01T01:08:43.334Z,9.68
2022-10-01T01:11:19.333Z,9.77
2022-10-01T01:13:54.964Z,9.80
2022-10-01T01:16:27.942Z,9.47
2022-10-01T01:19:01.617Z,9.73
2022-10-01T01:21:31.974Z,9.65
2022-10-01T01:24:32.326Z,9.88
2022-10-01T01:27:11.637Z,9.23
2022-10-01T01:29:43.918Z,9.07
2022-10-01T01:32:15.037Z,9.45
2022-10-01T01:34:43.949Z,9.50
2022-10-01T01:37:14.890Z,9.63
2022-10-01T01:39:45.717Z,9.68
2022-10-01T01:42:17.033Z,9.00
2022-10-01T01:44:47.725Z,8.75
2022-10-01T01:47:14.758Z,9.80
2022-10-01T01:49:42.100Z,10.98
2022-10-01T01:52:11.249Z,10.57
2022-10-01T01:54:37.774Z,9.73
2022-10-01T01:57:04.748Z,11.07
2022-10-01T01:59:32.309Z,10.27
2022-10-01T02:02:00.676Z,10.65
2022-10-01T02:04:31.036Z,10.98
2022-10-01T02:07:15.552Z,11.70
2022-10-01T02:09:52.529Z,12.80
2022-10-01T02:12:26.882Z,10.88
2022-10-01T02:14:56.801Z,12.75
2022-10-01T02:17:32.133Z,12.50
2022-10-01T02:20:06.061Z,11.13
2022-10-01T02:22:40.403Z,12.13
2022-10-01T02:25:09.417Z,12.48
2022-10-01T02:27:41.053Z,11.93
2022-10-01T02:30:09.685Z,11.95
2022-10-01T02:32:40.272Z,13.33
2022-10-01T02:35:10.340Z,12.45
2022-10-01T02:37:38.677Z,12.02
2022-10-01T02:40:08.697Z,13.48
2022-10-01T02:42:36.312Z,12.50
2022-10-01T02:45:04.973Z,12.27
2022-10-01T02:47:36.778Z,12.00
2022-10-01T02:50:07.665Z,12.00
2022-10-01T02:52:39.388Z,11.52
2022-10-01T02:55:12.012Z,10.77
2022-10-01T02:57:38.866Z,11.47
2022-10-01T03:00:08.937Z,12.02
2022-10-01T03:02:35.512Z,11.98
2022-10-01T03:05:04.160Z,13.07
2022-10-01T03:07:32.338Z,12.63
2022-10-01T03:09:58.869Z,12.67
2022-10-01T03:12:25.606Z,13.05
2022-10-01T03:14:52.261Z,12.57
2022-10-01T03:17:18.916Z,12.40
2022-10-01T03:19:45.828Z,11.93
2022-10-01T03:22:16.135Z,11.63
2022-10-01T03:24:42.645Z,10.98
2022-10-01T03:27:09.388Z,10.68
2022-10-01T03:29:35.978Z,10.40
2022-10-01T03:32:02.497Z,10.32
2022-10-01T03:34:29.036Z,9.97
2022-10-01T03:36:55.610Z,10.32
2022-10-01T03:39:23.546Z,11.27
2022-10-01T03:41:50.060Z,10.85
2022-10-01T03:44:16.862Z,11.38
2022-10-01T03:46:43.629Z,10.37
2022-10-01T03:49:10.206Z,10.80
2022-10-01T03:51:37.913Z,11.63
2022-10-01T03:54:05.873Z,12.27
2022-10-01T03:56:34.180Z,11.60
2022-10-01T03:59:00.880Z,11.80
2022-10-01T04:01:27.984Z,11.82
2022-10-01T04:03:54.577Z,12.70
2022-10-01T04:06:21.108Z,12.55
2022-10-01T04:08:47.801Z,13.07
2022-10-01T04:11:14.401Z,12.53
2022-10-01T04:13:42.252Z,11.98
2022-10-01T04:16:09.139Z,12.63
2022-10-01T04:18:35.907Z,12.88
2022-10-01T04:21:03.464Z,14.35
2022-10-01T04:23:30.123Z,12.60
2022-10-01T04:25:58.932Z,13.82
2022-10-01T04:28:25.531Z,14.05
2022-10-01T04:30:53.421Z,15.63
2022-10-01T04:33:19.930Z,12.80
2022-10-01T04:35:46.472Z,12.47
2022-10-01T04:38:15.016Z,13.40
2022-10-01T04:40:41.533Z,12.32
2022-10-01T04:43:08.827Z,11.63
2022-10-01T04:45:35.397Z,10.88
2022-10-01T04:48:03.629Z,11.30
2022-10-01T04:50:30.210Z,10.27
2022-10-01T04:52:57.036Z,11.35
2022-10-01T04:55:23.720Z,10.43
2022-10-01T04:57:50.593Z,11.63
2022-10-01T05:00:19.332Z,12.90
2022-10-01T05:02:46.392Z,12.25
2022-10-01T05:05:14.832Z,13.02
2022-10-01T05:07:41.972Z,12.55
2022-10-01T05:10:11.820Z,11.02
2022-10-01T05:12:38.381Z,11.33
2022-10-01T05:15:05.982Z,11.00
2022-10-01T05:17:32.526Z,11.93
2022-10-01T05:19:59.342Z,12.70
2022-10-01T05:22:27.266Z,10.93
2022-10-01T05:24:53.808Z,11.73
2022-10-01T05:27:20.357Z,11.85
2022-10-01T05:29:46.972Z,11.93
2022-10-01T05:32:13.521Z,12.35
2022-10-01T05:34:40.239Z,12.35
2022-10-01T05:37:06.875Z,11.67
2022-10-01T05:39:34.720Z,11.35
2022-10-01T05:42:06.028Z,10.90
2022-10-01T05:44:33.011Z,10.60
2022-10-01T05:46:59.588Z,11.82
2022-10-01T05:49:26.074Z,12.00
2022-10-01T05:51:52.577Z,12.02
2022-10-01T05:54:19.112Z,10.90
2022-10-01T05:56:46.994Z,11.60
2022-10-01T05:59:13.577Z,10.88
2022-10-01T06:01:40.142Z,11.40
2022-10-01T06:04:06.728Z,11.13
2022-10-01T06:06:33.269Z,11.73
2022-10-01T06:08:59.812Z,10.65
2022-10-01T06:11:26.329Z,9.98
2022-10-01T06:13:54.238Z,9.83
2022-10-01T06:16:20.887Z,10.15
2022-10-01T06:18:48.334Z,10.05
2022-10-01T06:21:14.872Z,9.35
2022-10-01T06:23:42.164Z,9.48
2022-10-01T06:26:08.731Z,10.00
2022-10-01T06:28:35.249Z,9.30
2022-10-01T06:31:03.767Z,9.63
2022-10-01T06:33:30.433Z,10.20
2022-10-01T06:35:57.025Z,10.75
2022-10-01T06:38:24.382Z,9.00
2022-10-01T06:40:52.305Z,9.40
2022-10-01T06:43:18.840Z,9.43
2022-10-01T06:45:45.414Z,9.82
2022-10-01T06:48:15.444Z,10.02
2022-10-01T06:50:43.050Z,9.13
2022-10-01T06:53:09.719Z,9.43
2022-10-01T06:55:37.744Z,9.80
2022-10-01T06:58:06.349Z,9.43
2022-10-01T07:00:35.161Z,10.23
2022-10-01T07:03:02.096Z,8.90
2022-10-01T07:05:30.696Z,9.25
2022-10-01T07:07:57.203Z,10.10
2022-10-01T07:10:23.789Z,9.23
2022-10-01T07:12:50.718Z,8.55
2022-10-01T07:15:19.041Z,8.77
2022-10-01T07:17:47.362Z,9.02
2022-10-01T07:20:14.072Z,8.65
2022-10-01T07:22:41.991Z,8.75
2022-10-01T07:25:09.278Z,9.57
2022-10-01T07:27:36.724Z,8.87
2022-10-01T07:30:03.772Z,9.57
2022-10-01T07:32:30.332Z,9.60
2022-10-01T07:34:57.233Z,9.60
2022-10-01T07:37:24.172Z,9.98
2022-10-01T07:39:52.046Z,10.97
2022-10-01T07:42:18.617Z,9.48
2022-10-01T07:44:45.190Z,10.65
2022-10-01T07:47:11.752Z,9.25
2022-10-01T07:49:38.493Z,9.07
2022-10-01T07:52:06.825Z,10.17
2022-10-01T07:54:36.234Z,11.13
2022-10-01T07:57:04.216Z,10.70
2022-10-01T07:59:30.749Z,10.32
2022-10-01T08:01:57.403Z,10.05
2022-10-01T08:04:24.065Z,9.87
2022-10-01T08:06:50.620Z,9.35
2022-10-01T08:09:17.374Z,9.35
2022-10-01T08:11:43.953Z,10.20
2022-10-01T08:14:11.928Z,11.63
2022-10-01T08:16:38.882Z,11.03
2022-10-01T08:19:05.986Z,10.85
2022-10-01T08:21:32.952Z,11.40
2022-10-01T08:24:00.845Z,14.82
2022-10-01T08:26:27.497Z,12.30
2022-10-01T08:28:54.404Z,12.47
2022-10-01T08:31:22.658Z,10.80
2022-10-01T08:33:49.612Z,12.00
2022-10-01T08:36:16.604Z,12.32
2022-10-01T08:38:46.165Z,11.85
2022-10-01T08:41:27.784Z,10.27
2022-10-01T08:43:55.299Z,11.73
2022-10-01T08:46:27.905Z,10.98
2022-10-01T08:49:00.903Z,11.48
2022-10-01T08:51:35.009Z,12.10
2022-10-01T08:54:12.449Z,12.57
2022-10-01T08:56:43.117Z,12.00
2022-10-01T08:59:20.576Z,13.75
2022-10-01T09:01:50.074Z,12.10
2022-10-01T09:04:16.834Z,11.13
2022-10-01T09:06:46.413Z,13.00
2022-10-01T09:09:27.002Z,10.88
2022-10-01T09:12:04.867Z,10.90
2022-10-01T09:15:03.402Z,10.85
2022-10-01T09:17:43.880Z,10.35
2022-10-01T09:20:17.745Z,9.57
2022-10-01T09:22:52.597Z,10.25
2022-10-01T09:25:22.992Z,9.48
2022-10-01T09:27:51.194Z,9.65
2022-10-01T09:30:20.617Z,10.10
2022-10-01T09:32:52.354Z,9.23
2022-10-01T09:35:29.878Z,9.57
2022-10-01T09:38:00.124Z,8.98
2022-10-01T09:40:34.426Z,9.30
2022-10-01T09:43:01.384Z,8.13
2022-10-01T09:45:28.016Z,8.10
2022-10-01T09:48:03.382Z,9.32
2022-10-01T09:50:34.881Z,8.68
2022-10-01T09:53:02.386Z,7.45
2022-10-01T09:55:33.934Z,7.10
2022-10-01T09:58:04.870Z,10.67
2022-10-01T10:00:32.406Z,10.52
2022-10-01T10:03:00.477Z,10.75
2022-10-01T10:05:28.752Z,7.50
2022-10-01T10:08:00.190Z,8.75
2022-10-01T10:10:29.632Z,8.20
2022-10-01T10:12:58.783Z,7.00
2022-10-01T10:15:26.059Z,8.15
2022-10-01T10:17:52.963Z,7.10
2022-10-01T10:20:30.088Z,6.90
2022-10-01T10:23:06.729Z,6.97
2022-10-01T10:25:37.762Z,6.50
2022-10-01T10:28:04.374Z,7.00
2022-10-01T10:30:31.091Z,6.95
2022-10-01T10:33:04.433Z,6.90
2022-10-01T10:35:32.470Z,7.17
2022-10-01T10:38:03.524Z,7.13
2022-10-01T10:40:39.779Z,7.82
2022-10-01T10:43:06.477Z,6.65
2022-10-01T10:45:36.727Z,6.72
2022-10-01T10:48:06.695Z,6.20
2022-10-01T10:50:37.063Z,6.50
2022-10-01T10:53:17.399Z,5.93
2022-10-01T10:55:53.602Z,6.03
2022-10-01T10:58:20.120Z,6.18
2022-10-01T11:00:49.327Z,5.53
2022-10-01T11:03:17.714Z,5.63
2022-10-01T11:05:45.736Z,5.45
2022-10-01T11:08:18.787Z,6.00
2022-10-01T11:10:54.105Z,5.95
2022-10-01T11:13:31.777Z,5.37
2022-10-01T11:16:21.230Z,6.20
2022-10-01T11:19:16.108Z,6.25
2022-10-01T11:21:53.137Z,6.38
2022-10-01T11:24:45.183Z,5.10
2022-10-01T11:27:20.866Z,4.90
2022-10-01T11:30:01.057Z,6.25
2022-10-01T11:32:42.166Z,5.60
2022-10-01T11:35:23.844Z,4.82
2022-10-01T11:38:03.198Z,4.50
2022-10-01T11:40:35.733Z,3.90
2022-10-01T11:43:09.633Z,3.25
2022-10-01T11:45:41.667Z,3.10
2022-10-01T11:48:13.682Z,2.38
2022-10-01T11:50:42.870Z,1.80
2022-10-01T11:53:15.273Z,1.60
2022-10-01T11:55:45.553Z,1.35
2022-10-01T11:58:16.640Z,2.10
2022-10-01T12:00:52.919Z,2.60
2022-10-01T12:03:23.481Z,4.18
2022-10-01T12:05:51.763Z,2.90
2022-10-01T12:08:23.363Z,2.33
2022-10-01T12:10:55.421Z,1.92
2022-10-01T12:13:29.332Z,2.20
2022-10-01T12:16:00.763Z,2.03
2022-10-01T12:18:31.868Z,5.57
2022-10-01T12:21:01.039Z,2.30
2022-10-01T12:23:34.699Z,2.22
2022-10-01T12:26:08.625Z,1.73
2022-10-01T12:28:40.397Z,1.55
2022-10-01T12:31:15.075Z,1.50
2022-10-01T12:33:58.948Z,1.40
2022-10-01T12:36:37.215Z,1.30
2022-10-01T12:39:21.292Z,1.30
2022-10-01T12:41:55.481Z,1.40
2022-10-01T12:44:37.543Z,1.63
2022-10-01T12:47:11.103Z,1.90
2022-10-01T12:49:45.132Z,1.20
2022-10-01T12:52:20.988Z,1.42
2022-10-01T12:55:14.057Z,2.60
2022-10-01T12:57:48.334Z,1.40
2022-10-01T13:00:24.980Z,0.98
2022-10-01T13:03:14.457Z,0.95
2022-10-01T13:05:51.464Z,1.10
2022-10-01T13:08:37.239Z,1.20
2022-10-01T13:11:14.459Z,1.63
2022-10-01T13:13:41.523Z,1.60
2022-10-01T13:16:12.730Z,1.38
2022-10-01T13:18:56.930Z,2.58
2022-10-01T13:21:31.971Z,2.00
2022-10-01T13:24:03.495Z,1.67
2022-10-01T13:26:36.077Z,1.77
2022-10-01T13:29:12.304Z,1.70
2022-10-01T13:31:50.899Z,1.75
2022-10-01T13:34:38.645Z,1.45
2022-10-01T13:37:17.181Z,1.33
2022-10-01T13:39:44.429Z,1.65
2022-10-01T13:42:19.538Z,1.50
2022-10-01T13:44:53.230Z,1.42
2022-10-01T13:47:21.042Z,1.55
2022-10-01T13:49:55.714Z,1.50
2022-10-01T13:52:22.413Z,2.05
2022-10-01T13:54:51.775Z,2.88
2022-10-01T13:57:31.244Z,1.80
2022-10-01T13:59:59.436Z,1.60
2022-10-01T14:02:32.559Z,1.70
2022-10-01T14:05:17.595Z,1.77
2022-10-01T14:07:47.637Z,2.05
2022-10-01T14:10:16.410Z,1.90
2022-10-01T14:12:46.559Z,2.10
2022-10-01T14:15:16.587Z,2.23
2022-10-01T14:17:44.895Z,2.28
2022-10-01T14:20:18.086Z,2.65
2022-10-01T14:23:09.010Z,2.60
2022-10-01T14:25:43.704Z,1.90
2022-10-01T14:28:38.520Z,2.10
2022-10-01T14:31:09.467Z,2.60
2022-10-01T14:34:10.115Z,2.55
2022-10-01T14:36:42.005Z,2.60
2022-10-01T14:39:14.612Z,2.28
2022-10-01T14:41:41.483Z,1.73
2022-10-01T14:44:24.318Z,1.63
2022-10-01T14:46:52.245Z,1.70
2022-10-01T14:49:20.825Z,2.35
2022-10-01T14:51:52.993Z,2.30
2022-10-01T14:54:21.074Z,1.90
2022-10-01T14:56:48.625Z,1.50
2022-10-01T14:59:21.339Z,2.33
2022-10-01T15:01:56.917Z,1.80
2022-10-01T15:04:23.582Z,2.00
2022-10-01T15:06:50.151Z,2.27
2022-10-01T15:09:18.967Z,2.60
2022-10-01T15:11:48.486Z,2.20
2022-10-01T15:14:18.476Z,2.70
2022-10-01T15:16:45.676Z,2.08
2022-10-01T15:19:16.895Z,2.97
2022-10-01T15:21:49.532Z,2.28
2022-10-01T15:24:22.660Z,1.80
2022-10-01T15:26:50.032Z,2.85
2022-10-01T15:29:23.932Z,2.08
2022-10-01T15:31:52.061Z,2.33
2022-10-01T15:34:22.343Z,2.85
2022-10-01T15:36:49.980Z,2.63
2022-10-01T15:39:37.437Z,3.10
2022-10-01T15:42:07.583Z,2.40
2022-10-01T15:44:45.282Z,2.10
2022-10-01T15:47:33.228Z,2.10
2022-10-01T15:50:18.039Z,2.30
2022-10-01T15:52:56.723Z,1.80
2022-10-01T15:55:29.302Z,2.10
2022-10-01T15:58:01.180Z,2.00
2022-10-01T16:00:29.623Z,1.60
2022-10-01T16:02:57.240Z,2.20
2022-10-01T16:05:28.151Z,2.13
2022-10-01T16:07:57.787Z,3.40
2022-10-01T16:10:36.042Z,3.13
2022-10-01T16:13:28.284Z,2.20
2022-10-01T16:16:08.348Z,2.72
2022-10-01T16:18:34.954Z,2.13
2022-10-01T16:21:03.856Z,2.40
2022-10-01T16:23:34.962Z,2.10
2022-10-01T16:26:02.104Z,2.70
2022-10-01T16:28:31.035Z,2.47
2022-10-01T16:30:57.557Z,2.28
2022-10-01T16:33:24.157Z,2.97
2022-10-01T16:35:52.334Z,3.23
2022-10-01T16:38:20.346Z,2.42
2022-10-01T16:44:18.751Z,2.40
2022-10-01T16:46:45.336Z,2.15
2022-10-01T16:49:13.848Z,2.17
2022-10-01T16:51:40.872Z,2.00
2022-10-01T16:54:17.728Z,2.00
2022-10-01T16:56:44.259Z,2.50
2022-10-01T16:59:10.912Z,2.75
2022-10-01T17:01:37.434Z,2.63
2022-10-01T17:04:03.997Z,3.95
2022-10-01T17:06:30.531Z,3.90
2022-10-01T17:08:57.063Z,2.90
2022-10-01T17:11:25.779Z,2.70
2022-10-01T17:13:52.302Z,3.70
2022-10-01T17:16:23.856Z,3.33
2022-10-01T17:18:51.132Z,6.40
2022-10-01T17:21:17.774Z,4.93
2022-10-01T17:23:44.324Z,4.30
2022-10-01T17:26:10.894Z,4.20
2022-10-01T17:28:38.750Z,4.80
2022-10-01T17:31:07.006Z,6.65
2022-10-01T17:33:34.135Z,7.20
2022-10-01T17:36:05.167Z,5.78
2022-10-01T17:38:31.743Z,5.30
2022-10-01T17:40:59.889Z,3.17
2022-10-01T17:43:26.661Z,1.92
2022-10-01T17:45:57.481Z,3.15
2022-10-01T17:48:24.558Z,4.63
2022-10-01T17:50:59.131Z,6.60
2022-10-01T17:53:28.401Z,5.80
2022-10-01T17:56:00.245Z,5.32
2022-10-01T17:58:26.843Z,4.45
2022-10-01T18:00:53.460Z,5.97
2022-10-01T18:03:21.450Z,5.93
2022-10-01T18:05:48.036Z,3.42
2022-10-01T18:08:14.592Z,3.45
2022-10-01T18:10:41.156Z,3.83
2022-10-01T18:13:10.618Z,8.98
2022-10-01T18:15:37.176Z,6.07
2022-10-01T18:20:51.853Z,5.53
2022-10-01T18:23:18.407Z,4.00
2022-10-01T18:25:44.935Z,4.50
2022-10-01T18:28:11.546Z,2.97
2022-10-01T18:30:38.107Z,3.13
2022-10-01T18:33:05.444Z,2.28
2022-10-01T18:35:34.399Z,2.20
2022-10-01T18:38:09.505Z,2.55
2022-10-01T18:40:42.197Z,2.30
2022-10-01T18:43:12.847Z,3.13
2022-10-01T18:46:03.431Z,3.72
2022-10-01T18:48:53.007Z,3.28
2022-10-01T18:51:26.769Z,3.60
2022-10-01T18:54:20.557Z,3.70
2022-10-01T18:56:55.002Z,3.33
2022-10-01T18:59:33.531Z,4.78
2022-10-01T19:02:13.554Z,3.58
2022-10-01T19:04:57.271Z,4.80
2022-10-01T19:07:39.004Z,4.17
2022-10-01T19:10:15.733Z,7.93
2022-10-01T19:12:54.012Z,4.85
2022-10-01T19:15:36.316Z,1.73
2022-10-01T19:18:19.267Z,3.38
2022-10-01T19:21:07.148Z,1.93
2022-10-01T19:27:30.400Z,3.97
2022-10-01T19:30:03.537Z,3.33
2022-10-01T19:32:43.141Z,3.58
2022-10-01T19:35:17.503Z,4.30
2022-10-01T19:37:47.669Z,3.13
2022-10-01T19:40:27.126Z,2.63
2022-10-01T19:43:02.655Z,3.60
2022-10-01T19:45:39.939Z,3.95
2022-10-01T19:48:16.593Z,4.90
2022-10-01T19:50:45.357Z,3.80
2022-10-01T19:53:21.389Z,8.77
2022-10-01T19:55:53.676Z,7.90
2022-10-01T19:58:21.699Z,8.25
2022-10-01T20:00:53.963Z,6.80
2022-10-01T20:03:27.707Z,5.85
2022-10-01T20:05:57.355Z,4.38
2022-10-01T20:08:33.142Z,3.13
2022-10-01T20:11:03.451Z,3.05
2022-10-01T20:13:50.781Z,2.67
2022-10-01T20:16:24.460Z,3.00
2022-10-01T20:18:56.432Z,4.00
2022-10-01T20:21:33.856Z,4.45
2022-10-01T20:24:08.220Z,3.90
2022-10-01T20:26:39.406Z,3.77
2022-10-01T20:29:23.103Z,2.95
2022-10-01T20:31:59.132Z,2.97
2022-10-01T20:34:31.317Z,2.35
2022-10-01T20:37:10.938Z,2.30
2022-10-01T20:39:41.493Z,2.27
2022-10-01T20:42:14.657Z,2.88
2022-10-01T20:44:43.659Z,1.73
2022-10-01T20:47:16.480Z,2.25
2022-10-01T20:49:48.604Z,2.28
2022-10-01T20:52:22.693Z,2.70
2022-10-01T20:54:52.641Z,3.00
2022-10-01T20:57:27.636Z,3.40
2022-10-01T21:00:01.621Z,3.88
2022-10-01T21:02:34.563Z,3.83
2022-10-01T21:05:05.764Z,3.23
2022-10-01T21:07:37.159Z,2.55
2022-10-01T21:10:10.644Z,3.50
2022-10-01T21:12:42.838Z,2.85
2022-10-01T21:15:13.687Z,2.83
2022-10-01T21:17:49.354Z,2.50
2022-10-01T21:20:46.295Z,2.10
2022-10-01T21:23:25.218Z,3.22
2022-10-01T21:26:04.883Z,3.15
2022-10-01T21:28:56.144Z,3.22
2022-10-01T21:31:40.352Z,2.97
2022-10-01T21:34:12.871Z,3.00
2022-10-01T21:36:52.625Z,2.90
2022-10-01T21:39:30.664Z,3.25
2022-10-01T21:42:03.673Z,3.70
2022-10-01T21:45:04.984Z,3.20
2022-10-01T21:47:47.659Z,3.63
2022-10-01T21:50:22.167Z,3.47
2022-10-01T21:53:02.673Z,3.85
2022-10-01T21:55:45.137Z,3.10
2022-10-01T21:58:23.025Z,2.90
2022-10-01T22:00:57.519Z,3.67
2022-10-01T22:03:33.045Z,4.03
2022-10-01T22:06:08.344Z,4.55
2022-10-01T22:08:48.833Z,4.03
2022-10-01T22:11:18.696Z,4.60
2022-10-01T22:13:51.616Z,4.43
2022-10-01T22:16:19.691Z,4.10
2022-10-01T22:18:50.759Z,3.38
2022-10-01T22:21:22.868Z,4.03
2022-10-01T22:23:56.523Z,3.83
2022-10-01T22:26:26.887Z,3.22
2022-10-01T22:28:55.433Z,3.72
2022-10-01T22:31:26.966Z,3.80
2022-10-01T22:34:01.686Z,4.15
2022-10-01T22:36:33.619Z,5.13
2022-10-01T22:39:04.490Z,6.20
2022-10-01T22:41:37.882Z,5.72
2022-10-01T22:44:12.334Z,5.38
2022-10-01T22:47:04.280Z,4.25
2022-10-01T22:49:44.797Z,5.27
2022-10-01T22:52:21.003Z,5.18
2022-10-01T22:55:00.110Z,4.72
2022-10-01T22:57:52.450Z,4.72
2022-10-01T23:00:19.209Z,4.95
2022-10-01T23:02:52.851Z,4.70
2022-10-01T23:05:38.468Z,4.75
2022-10-01T23:08:12.275Z,5.78
2022-10-01T23:10:49.870Z,5.88
2022-10-01T23:13:24.476Z,5.13
2022-10-01T23:16:01.097Z,5.47
2022-10-01T23:18:39.704Z,5.32
2022-10-01T23:21:19.571Z,5.03
2022-10-01T23:23:56.792Z,4.45
2022-10-01T23:26:35.152Z,3.80
2022-10-01T23:29:22.811Z,4.00
2022-10-01T23:31:59.252Z,4.60
2022-10-01T23:34:36.946Z,5.28
2022-10-01T23:37:21.168Z,5.32
2022-10-01T23:39:52.018Z,5.07
2022-10-01T23:42:31.186Z,6.40
2022-10-01T23:45:08.867Z,6.05
2022-10-01T23:47:42.354Z,6.40
2022-10-01T23:50:20.719Z,7.07
2022-10-01T23:52:59.567Z,5.20
2022-10-01T23:55:38.694Z,5.57
2022-10-01T23:58:10.971Z,5.30
